createdAt,value
2016-02-01T00:00:35.132Z,998
2016-02-01T00:01:35.088Z,998.2
2016-02-01T00:02:35.043Z,998.1
2016-02-01T00:03:34.984Z,998.2
2016-02-01T00:04:34.927Z,998.1
2016-02-01T00:05:34.867Z,998
2016-02-01T00:06:34.807Z,998
2016-02-01T00:07:34.779Z,998
2016-02-01T00:08:34.703Z,998.1
2016-02-01T00:09:34.659Z,998.1
2016-02-01T00:10:34.615Z,998.2
2016-02-01T00:11:34.743Z,998.3
2016-02-01T00:12:33.745Z,998.2
2016-02-01T00:13:34.483Z,998.2
2016-02-01T00:14:34.408Z,998.3
2016-02-01T00:15:34.332Z,998
2016-02-01T00:16:34.256Z,998.2
2016-02-01T00:17:34.212Z,998.3
2016-02-01T00:18:34.403Z,998.1
2016-02-01T00:19:34.109Z,998.1
2016-02-01T00:20:34.049Z,998.5
2016-02-01T00:21:34.002Z,998.4
2016-02-01T00:22:33.941Z,998.2
2016-02-01T00:23:33.897Z,998.3
2016-02-01T00:24:33.850Z,998.3
2016-02-01T00:25:33.759Z,998.3
2016-02-01T00:26:33.919Z,998.4
2016-02-01T00:27:33.626Z,998.3
2016-02-01T00:28:32.816Z,998.3
2016-02-01T00:29:33.540Z,998.3
2016-02-01T00:30:33.428Z,998.3
2016-02-01T00:31:33.613Z,998.3
2016-02-01T00:32:33.329Z,998.3
2016-02-01T00:33:33.452Z,998.4
2016-02-01T00:34:33.199Z,998.5
2016-02-01T00:35:33.153Z,998.5
2016-02-01T00:36:33.092Z,998.5
2016-02-01T00:37:33.045Z,998.3
2016-02-01T00:38:32.999Z,998.4
2016-02-01T00:39:32.907Z,998.5
2016-02-01T00:40:32.848Z,998.5
2016-02-01T00:41:33.054Z,998.5
2016-02-01T00:42:32.978Z,998.5
2016-02-01T00:43:32.682Z,998.5
2016-02-01T00:44:32.638Z,998.5
2016-02-01T00:45:32.579Z,998.6
2016-02-01T00:46:32.549Z,998.6
2016-02-01T00:47:32.487Z,998.5
2016-02-01T00:48:32.428Z,998.5
2016-02-01T00:49:32.557Z,998.4
2016-02-01T00:50:32.310Z,998.6
2016-02-01T00:51:32.265Z,998.7
2016-02-01T00:52:32.190Z,998.8
2016-02-01T00:53:32.135Z,998.6
2016-02-01T00:54:32.090Z,998.8
2016-02-01T00:55:32.046Z,998.7
2016-02-01T00:56:31.976Z,998.8
2016-02-01T00:57:31.931Z,998.9
2016-02-01T00:58:31.870Z,998.9
2016-02-01T00:59:31.826Z,998.9
2016-02-01T01:00:31.768Z,998.9
2016-02-01T01:01:30.958Z,999
2016-02-01T01:02:31.649Z,999
2016-02-01T01:03:31.604Z,999.1
2016-02-01T01:04:31.748Z,999
2016-02-01T01:05:31.738Z,999.1
2016-02-01T01:06:31.443Z,998.9
2016-02-01T01:07:31.384Z,999
2016-02-01T01:08:31.762Z,999.1
2016-02-01T01:09:31.283Z,999.1
2016-02-01T01:10:31.239Z,999.1
2016-02-01T01:11:31.164Z,999.3
2016-02-01T01:12:31.120Z,999.2
2016-02-01T01:13:31.060Z,999.4
2016-02-01T01:14:31.001Z,999.3
2016-02-01T01:15:30.956Z,999.2
2016-02-01T01:16:30.897Z,999.2
2016-02-01T01:17:30.853Z,999.3
2016-02-01T01:18:30.793Z,999.3
2016-02-01T01:19:30.733Z,999.4
2016-02-01T01:20:30.693Z,999.3
2016-02-01T01:21:30.634Z,999.3
2016-02-01T01:22:30.558Z,999.3
2016-02-01T01:23:30.515Z,999.4
2016-02-01T01:24:30.470Z,999.3
2016-02-01T01:25:30.613Z,999.3
2016-02-01T01:26:30.366Z,999.4
2016-02-01T01:27:30.291Z,999.4
2016-02-01T01:28:30.262Z,999.6
2016-02-01T01:29:30.203Z,999.6
2016-02-01T01:30:30.347Z,999.6
2016-02-01T01:31:30.100Z,999.7
2016-02-01T01:32:30.055Z,999.6
2016-02-01T01:33:29.980Z,999.6
2016-02-01T01:34:29.921Z,999.6
2016-02-01T01:35:29.877Z,999.7
2016-02-01T01:36:29.833Z,999.7
2016-02-01T01:37:29.789Z,999.6
2016-02-01T01:38:29.715Z,999.7
2016-02-01T01:39:29.654Z,999.9
2016-02-01T01:40:29.610Z,999.9
2016-02-01T01:41:29.569Z,999.8
2016-02-01T01:42:29.509Z,999.8
2016-02-01T01:43:29.449Z,999.8
2016-02-01T01:44:29.390Z,999.8
2016-02-01T01:45:29.533Z,999.8
2016-02-01T01:46:29.286Z,999.8
2016-02-01T01:47:29.242Z,999.8
2016-02-01T01:48:29.401Z,999.8
2016-02-01T01:49:29.122Z,999.9
2016-02-01T01:50:29.082Z,999.8
2016-02-01T01:51:29.021Z,999.9
2016-02-01T01:52:28.962Z,999.8
2016-02-01T01:53:28.918Z,999.8
2016-02-01T01:54:28.859Z,999.9
2016-02-01T01:55:28.814Z,999.9
2016-02-01T01:56:28.739Z,999.9
2016-02-01T01:57:28.695Z,999.9
2016-02-01T01:58:28.635Z,999.8
2016-02-01T01:59:28.862Z,1000
2016-02-01T02:00:28.552Z,1000
2016-02-01T02:01:28.478Z,999.8
2016-02-01T02:02:28.449Z,1000
2016-02-01T02:03:28.233Z,1000
2016-02-01T02:04:28.330Z,1000
2016-02-01T02:05:28.260Z,999.9
2016-02-01T02:06:34.499Z,999.9
2016-02-01T02:07:28.155Z,1000
2016-02-01T02:08:28.094Z,999.9
2016-02-01T02:09:28.035Z,999.9
2016-02-01T02:10:28.007Z,1000
2016-02-01T02:11:27.932Z,1000
2016-02-01T02:12:28.123Z,999.9
2016-02-01T02:13:27.829Z,1000
2016-02-01T02:14:27.801Z,1000.1
2016-02-01T02:15:27.913Z,1000.1
2016-02-01T02:16:27.869Z,1000.1
2016-02-01T02:17:27.622Z,1000.2
2016-02-01T02:18:27.563Z,1000.2
2016-02-01T02:19:27.502Z,1000.3
2016-02-01T02:20:27.443Z,1000.2
2016-02-01T02:21:27.399Z,1000.2
2016-02-01T02:22:27.542Z,1000.4
2016-02-01T02:23:27.514Z,1000.2
2016-02-01T02:24:27.252Z,1000.4
2016-02-01T02:25:27.176Z,1000.3
2016-02-01T02:26:27.133Z,1000.2
2016-02-01T02:27:27.073Z,1000.1
2016-02-01T02:28:27.013Z,1000.2
2016-02-01T02:29:26.969Z,1000.2
2016-02-01T02:30:26.912Z,1000.1
2016-02-01T02:31:26.852Z,1000.2
2016-02-01T02:32:26.792Z,1000.2
2016-02-01T02:33:26.748Z,1000.1
2016-02-01T02:34:26.688Z,1000.2
2016-02-01T02:35:26.629Z,1000.2
2016-02-01T02:36:26.586Z,1000.2
2016-02-01T02:37:26.525Z,1000.1
2016-02-01T02:38:26.497Z,1000.1
2016-02-01T02:39:26.427Z,1000.1
2016-02-01T02:40:26.366Z,1000.2
2016-02-01T02:41:26.308Z,1000.1
2016-02-01T02:42:26.263Z,1000.2
2016-02-01T02:43:26.188Z,1000.3
2016-02-01T02:44:26.159Z,1000.3
2016-02-01T02:45:26.100Z,1000.2
2016-02-01T02:46:26.042Z,1000.1
2016-02-01T02:47:25.982Z,1000.2
2016-02-01T02:48:25.938Z,1000.3
2016-02-01T02:49:25.863Z,1000.2
2016-02-01T02:50:25.819Z,1000.2
2016-02-01T02:51:25.785Z,1000.3
2016-02-01T02:52:25.725Z,1000.2
2016-02-01T02:53:25.496Z,1000.3
2016-02-01T02:54:25.608Z,1000.3
2016-02-01T02:55:25.550Z,1000.3
2016-02-01T02:56:25.506Z,1000.3
2016-02-01T02:57:25.477Z,1000.2
2016-02-01T02:58:25.386Z,1000.4
2016-02-01T02:59:25.342Z,1000.4
2016-02-01T03:00:25.283Z,1000.5
2016-02-01T03:01:25.239Z,1000.5
2016-02-01T03:02:25.163Z,1000.5
2016-02-01T03:03:25.104Z,1000.4
2016-02-01T03:04:25.062Z,1000.7
2016-02-01T03:05:24.268Z,1000.5
2016-02-01T03:06:24.959Z,1000.7
2016-02-01T03:07:24.915Z,1000.6
2016-02-01T03:08:24.839Z,1000.7
2016-02-01T03:09:25.030Z,1000.7
2016-02-01T03:10:24.735Z,1000.7
2016-02-01T03:11:24.911Z,1000.7
2016-02-01T03:12:24.633Z,1000.5
2016-02-01T03:13:24.635Z,1000.6
2016-02-01T03:14:24.749Z,1000.5
2016-02-01T03:15:24.675Z,1000.6
2016-02-01T03:16:24.411Z,1000.6
2016-02-01T03:17:24.367Z,1000.6
2016-02-01T03:18:24.308Z,1000.5
2016-02-01T03:19:24.248Z,1000.7
2016-02-01T03:20:24.456Z,1000.5
2016-02-01T03:21:24.148Z,1000.8
2016-02-01T03:22:24.118Z,1000.7
2016-02-01T03:23:24.043Z,1000.7
2016-02-01T03:24:23.987Z,1000.7
2016-02-01T03:25:23.940Z,1000.8
2016-02-01T03:26:23.880Z,1000.8
2016-02-01T03:27:23.852Z,1000.7
2016-02-01T03:28:23.762Z,1000.8
2016-02-01T03:29:23.702Z,1001
2016-02-01T03:30:23.721Z,1000.8
2016-02-01T03:31:23.614Z,1000.8
2016-02-01T03:32:23.554Z,1000.9
2016-02-01T03:33:23.526Z,1000.9
2016-02-01T03:34:23.450Z,1000.9
2016-02-01T03:35:23.407Z,1000.9
2016-02-01T03:36:22.644Z,1000.9
2016-02-01T03:37:23.308Z,1001
2016-02-01T03:38:23.280Z,1001.1
2016-02-01T03:39:23.220Z,1001.1
2016-02-01T03:40:23.194Z,1001
2016-02-01T03:41:23.321Z,1001.1
2016-02-01T03:42:23.013Z,1001.1
2016-02-01T03:43:22.968Z,1001.1
2016-02-01T03:44:22.955Z,1001.3
2016-02-01T03:45:22.911Z,1001.2
2016-02-01T03:46:22.835Z,1001.2
2016-02-01T03:47:22.760Z,1001.3
2016-02-01T03:48:22.716Z,1001.3
2016-02-01T03:49:22.531Z,1001.3
2016-02-01T03:50:22.596Z,1001.3
2016-02-01T03:51:21.819Z,1001.3
2016-02-01T03:52:22.482Z,1001.2
2016-02-01T03:53:22.437Z,1001
2016-02-01T03:54:22.378Z,1001.1
2016-02-01T03:55:22.224Z,1001.1
2016-02-01T03:56:22.291Z,1001.2
2016-02-01T03:57:22.449Z,1001.3
2016-02-01T03:58:22.170Z,1001.2
2016-02-01T03:59:22.157Z,1001.4
2016-02-01T04:00:22.098Z,1001.3
2016-02-01T04:01:22.010Z,1001.4
2016-02-01T04:02:21.982Z,1001.5
2016-02-01T04:03:21.922Z,1001.5
2016-02-01T04:04:22.066Z,1001.5
2016-02-01T04:05:21.883Z,1001.5
2016-02-01T04:06:21.980Z,1001.5
2016-02-01T04:07:21.701Z,1001.4
2016-02-01T04:08:21.657Z,1001.5
2016-02-01T04:09:21.597Z,1001.6
2016-02-01T04:10:20.771Z,1001.6
2016-02-01T04:11:21.493Z,1001.7
2016-02-01T04:12:21.261Z,1001.6
2016-02-01T04:13:21.388Z,1001.7
2016-02-01T04:14:21.329Z,1001.6
2016-02-01T04:15:21.269Z,1001.7
2016-02-01T04:16:21.521Z,1001.7
2016-02-01T04:17:21.149Z,1001.7
2016-02-01T04:18:21.184Z,1001.7
2016-02-01T04:19:21.265Z,1001.7
2016-02-01T04:20:21.079Z,1001.7
2016-02-01T04:21:21.006Z,1001.8
2016-02-01T04:22:20.962Z,1001.7
2016-02-01T04:23:20.856Z,1001.7
2016-02-01T04:24:20.843Z,1001.7
2016-02-01T04:25:20.721Z,1001.8
2016-02-01T04:26:21.365Z,1001.9
2016-02-01T04:27:20.634Z,1001.8
2016-02-01T04:28:20.604Z,1001.8
2016-02-01T04:29:20.904Z,1001.8
2016-02-01T04:30:20.488Z,1001.8
2016-02-01T04:31:20.412Z,1001.8
2016-02-01T04:32:20.385Z,1001.7
2016-02-01T04:33:20.324Z,1001.9
2016-02-01T04:34:20.250Z,1001.7
2016-02-01T04:35:20.252Z,1001.7
2016-02-01T04:36:20.364Z,1001.6
2016-02-01T04:37:20.150Z,1001.7
2016-02-01T04:38:20.028Z,1001.6
2016-02-01T04:39:20.092Z,1001.7
2016-02-01T04:40:20.174Z,1001.7
2016-02-01T04:41:20.131Z,1001.8
2016-02-01T04:42:19.837Z,1001.8
2016-02-01T04:43:19.793Z,1001.8
2016-02-01T04:44:19.701Z,1001.8
2016-02-01T04:45:19.657Z,1001.8
2016-02-01T04:46:19.644Z,1001.9
2016-02-01T04:47:20.304Z,1002
2016-02-01T04:48:19.557Z,1001.9
2016-02-01T04:49:19.466Z,1001.8
2016-02-01T04:50:19.797Z,1001.9
2016-02-01T04:51:19.882Z,1001.9
2016-02-01T04:52:19.307Z,1001.8
2016-02-01T04:53:19.232Z,1001.8
2016-02-01T04:54:19.205Z,1001.8
2016-02-01T04:55:19.128Z,1001.7
2016-02-01T04:56:19.069Z,1001.8
2016-02-01T04:57:19.228Z,1001.7
2016-02-01T04:58:18.963Z,1001.8
2016-02-01T04:59:18.965Z,1001.8
2016-02-01T05:00:18.905Z,1001.7
2016-02-01T05:01:18.799Z,1001.7
2016-02-01T05:02:18.771Z,1001.7
2016-02-01T05:03:18.696Z,1001.6
2016-02-01T05:04:18.653Z,1001.7
2016-02-01T05:05:18.688Z,1001.7
2016-02-01T05:06:18.567Z,1001.7
2016-02-01T05:07:18.678Z,1001.8
2016-02-01T05:08:18.431Z,1001.7
2016-02-01T05:09:18.386Z,1001.8
2016-02-01T05:10:18.389Z,1001.8
2016-02-01T05:11:18.456Z,1001.9
2016-02-01T05:12:18.412Z,1001.9
2016-02-01T05:13:18.429Z,1002
2016-02-01T05:14:18.104Z,1001.8
2016-02-01T05:15:18.045Z,1002
2016-02-01T05:16:18.016Z,1002
2016-02-01T05:17:17.940Z,1002
2016-02-01T05:18:17.928Z,1002
2016-02-01T05:19:17.839Z,1002
2016-02-01T05:20:17.794Z,1002
2016-02-01T05:21:17.735Z,1002
2016-02-01T05:22:17.693Z,1002.1
2016-02-01T05:23:17.617Z,1002.1
2016-02-01T05:24:17.589Z,1002.2
2016-02-01T05:25:17.529Z,1002.1
2016-02-01T05:26:17.533Z,1002.2
2016-02-01T05:27:17.425Z,1002.3
2016-02-01T05:28:17.553Z,1002.4
2016-02-01T05:29:17.540Z,1002.3
2016-02-01T05:30:17.480Z,1002.2
2016-02-01T05:31:17.187Z,1002.3
2016-02-01T05:32:17.143Z,1002.3
2016-02-01T05:33:17.100Z,1002.3
2016-02-01T05:34:17.289Z,1002.3
2016-02-01T05:35:17.011Z,1002.3
2016-02-01T05:36:16.937Z,1002.2
2016-02-01T05:37:16.908Z,1002.2
2016-02-01T05:38:17.052Z,1002.3
2016-02-01T05:39:16.774Z,1002.3
2016-02-01T05:40:16.761Z,1002.3
2016-02-01T05:41:16.669Z,1002.3
2016-02-01T05:42:16.892Z,1002.2
2016-02-01T05:43:16.550Z,1002.3
2016-02-01T05:44:16.522Z,1002.5
2016-02-01T05:45:16.495Z,1002.4
2016-02-01T05:46:16.606Z,1002.5
2016-02-01T05:47:16.335Z,1002.5
2016-02-01T05:48:16.337Z,1002.4
2016-02-01T05:49:16.227Z,1002.4
2016-02-01T05:50:16.371Z,1002.5
2016-02-01T05:51:16.159Z,1002.5
2016-02-01T05:52:16.068Z,1002.5
2016-02-01T05:53:16.055Z,1002.5
2016-02-01T05:54:16.011Z,1002.8
2016-02-01T05:55:15.905Z,1002.7
2016-02-01T05:56:15.909Z,1002.6
2016-02-01T05:57:15.818Z,1002.7
2016-02-01T05:58:15.775Z,1002.7
2016-02-01T05:59:15.731Z,1002.8
2016-02-01T06:00:15.843Z,1002.9
2016-02-01T06:01:15.835Z,1002.9
2016-02-01T06:02:15.541Z,1003
2016-02-01T06:03:15.499Z,1002.9
2016-02-01T06:04:15.471Z,1002.9
2016-02-01T06:05:15.396Z,1002.9
2016-02-01T06:06:15.351Z,1003
2016-02-01T06:07:15.279Z,1002.9
2016-02-01T06:08:15.220Z,1003
2016-02-01T06:09:15.206Z,1003
2016-02-01T06:10:15.209Z,1003
2016-02-01T06:11:15.056Z,1002.8
2016-02-01T06:12:15.013Z,1002.8
2016-02-01T06:13:14.954Z,1003
2016-02-01T06:14:14.894Z,1002.8
2016-02-01T06:15:14.850Z,1002.9
2016-02-01T06:16:14.793Z,1002.8
2016-02-01T06:17:14.827Z,1002.9
2016-02-01T06:18:14.736Z,1003.1
2016-02-01T06:19:14.630Z,1002.9
2016-02-01T06:20:14.616Z,1003
2016-02-01T06:21:14.532Z,1002.9
2016-02-01T06:22:14.473Z,1002.9
2016-02-01T06:23:14.446Z,1003
2016-02-01T06:24:14.384Z,1003
2016-02-01T06:25:14.306Z,1003.1
2016-02-01T06:26:14.262Z,1003.1
2016-02-01T06:27:14.187Z,1003.2
2016-02-01T06:28:14.146Z,1003.2
2016-02-01T06:29:14.118Z,1003.2
2016-02-01T06:30:14.042Z,1003.2
2016-02-01T06:31:14.202Z,1003.2
2016-02-01T06:32:13.956Z,1003.2
2016-02-01T06:33:13.881Z,1003.3
2016-02-01T06:34:13.884Z,1003.2
2016-02-01T06:35:13.808Z,1003.3
2016-02-01T06:36:13.779Z,1003.4
2016-02-01T06:37:13.706Z,1003.2
2016-02-01T06:38:12.881Z,1003.2
2016-02-01T06:39:13.603Z,1003.3
2016-02-01T06:40:13.511Z,1003.2
2016-02-01T06:41:13.452Z,1003.3
2016-02-01T06:42:13.424Z,1003.2
2016-02-01T06:43:13.365Z,1003.2
2016-02-01T06:44:13.308Z,1003.1
2016-02-01T06:45:13.296Z,1003.1
2016-02-01T06:46:13.189Z,1003.3
2016-02-01T06:47:13.149Z,1003.3
2016-02-01T06:48:13.308Z,1003.3
2016-02-01T06:49:13.046Z,1003.4
2016-02-01T06:50:13.002Z,1003.3
2016-02-01T06:51:12.926Z,1003.3
2016-02-01T06:52:12.866Z,1003.4
2016-02-01T06:53:12.838Z,1003.5
2016-02-01T06:54:12.950Z,1003.5
2016-02-01T06:55:13.140Z,1003.5
2016-02-01T06:56:12.909Z,1003.4
2016-02-01T06:57:12.602Z,1003.5
2016-02-01T06:58:12.588Z,1003.6
2016-02-01T06:59:12.513Z,1003.5
2016-02-01T07:00:12.438Z,1003.5
2016-02-01T07:01:12.409Z,1003.5
2016-02-01T07:02:12.366Z,1003.5
2016-02-01T07:03:12.291Z,1003.4
2016-02-01T07:04:12.449Z,1003.4
2016-02-01T07:05:12.171Z,1003.4
2016-02-01T07:06:12.345Z,1003.4
2016-02-01T07:07:12.066Z,1003.3
2016-02-01T07:08:12.038Z,1003.4
2016-02-01T07:09:11.962Z,1003.4
2016-02-01T07:10:11.903Z,1003.3
2016-02-01T07:11:11.843Z,1003.4
2016-02-01T07:12:11.814Z,1003.4
2016-02-01T07:13:11.772Z,1003.5
2016-02-01T07:14:11.681Z,1003.4
2016-02-01T07:15:11.872Z,1003.4
2016-02-01T07:16:11.577Z,1003.4
2016-02-01T07:17:11.533Z,1003.4
2016-02-01T07:18:11.486Z,1003.5
2016-02-01T07:19:11.408Z,1003.5
2016-02-01T07:20:11.364Z,1003.6
2016-02-01T07:21:11.305Z,1003.6
2016-02-01T07:22:11.261Z,1003.7
2016-02-01T07:23:11.436Z,1003.6
2016-02-01T07:24:11.360Z,1003.6
2016-02-01T07:25:11.097Z,1003.7
2016-02-01T07:26:11.115Z,1003.6
2016-02-01T07:27:10.995Z,1003.6
2016-02-01T07:28:10.951Z,1003.6
2016-02-01T07:29:10.876Z,1003.6
2016-02-01T07:30:10.833Z,1003.7
2016-02-01T07:31:10.772Z,1003.7
2016-02-01T07:32:10.713Z,1003.7
2016-02-01T07:33:10.660Z,1003.6
2016-02-01T07:34:09.865Z,1003.6
2016-02-01T07:35:10.571Z,1003.6
2016-02-01T07:36:10.496Z,1003.5
2016-02-01T07:37:10.452Z,1003.7
2016-02-01T07:38:10.393Z,1003.5
2016-02-01T07:39:10.333Z,1003.7
2016-02-01T07:40:10.476Z,1003.7
2016-02-01T07:41:10.230Z,1003.7
2016-02-01T07:42:10.169Z,1003.7
2016-02-01T07:43:10.142Z,1003.7
2016-02-01T07:44:10.083Z,1003.6
2016-02-01T07:45:10.023Z,1003.7
2016-02-01T07:46:09.963Z,1003.7
2016-02-01T07:47:09.888Z,1003.7
2016-02-01T07:48:09.843Z,1003.8
2016-02-01T07:49:10.023Z,1003.7
2016-02-01T07:50:09.932Z,1003.7
2016-02-01T07:51:09.684Z,1003.8
2016-02-01T07:52:09.641Z,1003.8
2016-02-01T07:53:09.581Z,1003.8
2016-02-01T07:54:09.523Z,1003.9
2016-02-01T07:55:09.462Z,1003.9
2016-02-01T07:56:09.418Z,1003.7
2016-02-01T07:57:09.359Z,1003.7
2016-02-01T07:58:09.329Z,1003.7
2016-02-01T07:59:08.473Z,1003.8
2016-02-01T08:00:09.179Z,1003.6
2016-02-01T08:01:09.135Z,1003.6
2016-02-01T08:02:09.309Z,1003.6
2016-02-01T08:03:09.015Z,1003.6
2016-02-01T08:04:09.608Z,1003.6
2016-02-01T08:05:08.925Z,1003.7
2016-02-01T08:06:08.865Z,1003.7
2016-02-01T08:07:08.055Z,1003.7
2016-02-01T08:08:08.749Z,1003.8
2016-02-01T08:09:08.705Z,1003.9
2016-02-01T08:10:08.647Z,1003.7
2016-02-01T08:11:08.617Z,1003.8
2016-02-01T08:12:07.789Z,1003.7
2016-02-01T08:13:08.495Z,1003.7
2016-02-01T08:14:08.483Z,1003.6
2016-02-01T08:15:08.408Z,1003.7
2016-02-01T08:16:08.316Z,1003.7
2016-02-01T08:17:08.116Z,1003.7
2016-02-01T08:18:08.431Z,1003.7
2016-02-01T08:19:08.201Z,1003.8
2016-02-01T08:20:08.126Z,1003.8
2016-02-01T08:21:08.066Z,1003.8
2016-02-01T08:22:08.022Z,1003.8
2016-02-01T08:23:07.963Z,1003.8
2016-02-01T08:24:07.903Z,1003.7
2016-02-01T08:25:07.859Z,1003.8
2016-02-01T08:26:07.799Z,1003.6
2016-02-01T08:27:07.739Z,1003.7
2016-02-01T08:28:07.711Z,1003.7
2016-02-01T08:29:07.636Z,1003.8
2016-02-01T08:30:07.576Z,1003.8
2016-02-01T08:31:07.532Z,1003.8
2016-02-01T08:32:07.489Z,1003.8
2016-02-01T08:33:07.416Z,1003.7
2016-02-01T08:34:07.372Z,1003.6
2016-02-01T08:35:07.328Z,1003.7
2016-02-01T08:36:07.268Z,1003.7
2016-02-01T08:37:07.209Z,1003.8
2016-02-01T08:38:07.165Z,1003.8
2016-02-01T08:39:07.340Z,1003.7
2016-02-01T08:40:07.062Z,1003.8
2016-02-01T08:41:07.002Z,1003.8
2016-02-01T08:42:06.957Z,1003.8
2016-02-01T08:43:06.913Z,1003.8
2016-02-01T08:44:06.855Z,1003.8
2016-02-01T08:45:06.983Z,1003.7
2016-02-01T08:46:06.735Z,1003.7
2016-02-01T08:47:06.690Z,1003.7
2016-02-01T08:48:06.632Z,1003.7
2016-02-01T08:49:06.574Z,1003.7
2016-02-01T08:50:06.529Z,1003.8
2016-02-01T08:51:06.657Z,1003.7
2016-02-01T08:52:06.457Z,1003.8
2016-02-01T08:53:06.366Z,1003.8
2016-02-01T08:54:06.307Z,1003.8
2016-02-01T08:55:06.249Z,1003.7
2016-02-01T08:56:06.392Z,1003.8
2016-02-01T08:57:06.145Z,1003.9
2016-02-01T08:58:06.085Z,1003.8
2016-02-01T08:59:06.040Z,1003.7
2016-02-01T09:00:05.982Z,1003.9
2016-02-01T09:01:05.922Z,1003.6
2016-02-01T09:02:05.877Z,1003.7
2016-02-01T09:03:05.818Z,1003.6
2016-02-01T09:04:05.791Z,1003.8
2016-02-01T09:05:05.949Z,1003.6
2016-02-01T09:06:05.671Z,1003.7
2016-02-01T09:07:05.627Z,1003.7
2016-02-01T09:08:05.785Z,1003.7
2016-02-01T09:09:05.509Z,1003.8
2016-02-01T09:10:05.480Z,1003.7
2016-02-01T09:11:05.404Z,1003.7
2016-02-01T09:12:05.345Z,1003.6
2016-02-01T09:13:05.301Z,1003.6
2016-02-01T09:14:05.679Z,1003.6
2016-02-01T09:15:05.198Z,1003.7
2016-02-01T09:16:05.138Z,1003.8
2016-02-01T09:17:05.078Z,1003.8
2016-02-01T09:18:05.019Z,1003.8
2016-02-01T09:19:04.989Z,1003.8
2016-02-01T09:20:04.937Z,1003.8
2016-02-01T09:21:04.721Z,1003.9
2016-02-01T09:22:04.823Z,1003.7
2016-02-01T09:23:04.762Z,1003.7
2016-02-01T09:24:04.719Z,1003.6
2016-02-01T09:25:04.660Z,1003.6
2016-02-01T09:26:04.613Z,1003.6
2016-02-01T09:27:04.788Z,1003.6
2016-02-01T09:28:04.494Z,1003.6
2016-02-01T09:29:04.468Z,1003.7
2016-02-01T09:30:04.409Z,1003.8
2016-02-01T09:31:04.344Z,1003.8
2016-02-01T09:32:04.270Z,1003.8
2016-02-01T09:33:04.196Z,1003.8
2016-02-01T09:34:04.373Z,1003.8
2016-02-01T09:35:04.066Z,1003.8
2016-02-01T09:36:03.997Z,1003.8
2016-02-01T09:37:03.948Z,1003.7
2016-02-01T09:38:03.899Z,1003.9
2016-02-01T09:39:03.849Z,1003.8
2016-02-01T09:40:04.004Z,1003.7
2016-02-01T09:41:03.711Z,1003.6
2016-02-01T09:42:03.712Z,1003.8
2016-02-01T09:43:03.603Z,1003.8
2016-02-01T09:44:03.745Z,1003.8
2016-02-01T09:45:03.496Z,1003.9
2016-02-01T09:46:03.498Z,1003.8
2016-02-01T09:47:03.395Z,1003.8
2016-02-01T09:48:03.333Z,1003.9
2016-02-01T09:49:03.539Z,1003.8
2016-02-01T09:50:03.229Z,1003.8
2016-02-01T09:51:03.177Z,1003.8
2016-02-01T09:52:03.117Z,1003.9
2016-02-01T09:53:03.073Z,1004.1
2016-02-01T09:54:03.014Z,1003.9
2016-02-01T09:55:03.016Z,1003.9
2016-02-01T09:56:02.910Z,1003.9
2016-02-01T09:57:02.912Z,1003.8
2016-02-01T09:58:02.790Z,1003.9
2016-02-01T09:59:02.747Z,1003.9
2016-02-01T10:00:02.702Z,1003.9
2016-02-01T10:01:02.644Z,1003.8
2016-02-01T10:02:02.585Z,1003.9
2016-02-01T10:03:02.540Z,1003.9
2016-02-01T10:04:02.465Z,1004
2016-02-01T10:05:02.421Z,1004
2016-02-01T10:06:02.564Z,1003.9
2016-02-01T10:07:02.521Z,1003.9
2016-02-01T10:08:02.289Z,1003.8
2016-02-01T10:09:02.213Z,1003.9
2016-02-01T10:10:02.159Z,1004
2016-02-01T10:11:02.115Z,1004.1
2016-02-01T10:12:02.054Z,1004.1
2016-02-01T10:13:01.995Z,1004.1
2016-02-01T10:14:01.935Z,1004
2016-02-01T10:15:01.890Z,1003.9
2016-02-01T10:16:01.846Z,1004.1
2016-02-01T10:17:01.787Z,1004.1
2016-02-01T10:18:01.726Z,1004.1
2016-02-01T10:19:01.683Z,1004.2
2016-02-01T10:20:01.640Z,1004.1
2016-02-01T10:21:01.564Z,1004
2016-02-01T10:22:01.538Z,1004.1
2016-02-01T10:23:01.493Z,1004
2016-02-01T10:24:01.418Z,1004
2016-02-01T10:25:01.374Z,1004
2016-02-01T10:26:01.316Z,1004
2016-02-01T10:27:01.271Z,1004
2016-02-01T10:28:01.211Z,1004
2016-02-01T10:29:01.355Z,1004
2016-02-01T10:30:01.107Z,1004
2016-02-01T10:31:00.910Z,1004
2016-02-01T10:32:01.007Z,1003.9
2016-02-01T10:33:00.977Z,1003.9
2016-02-01T10:34:00.902Z,1004
2016-02-01T10:35:01.078Z,1003.9
2016-02-01T10:36:00.840Z,1003.9
2016-02-01T10:37:00.771Z,1003.9
2016-02-01T10:38:00.712Z,1003.8
2016-02-01T10:39:00.888Z,1003.9
2016-02-01T10:40:00.736Z,1003.7
2016-02-01T10:41:00.519Z,1003.8
2016-02-01T10:42:00.600Z,1003.8
2016-02-01T10:43:00.431Z,1003.6
2016-02-01T10:44:00.433Z,1003.7
2016-02-01T10:45:00.318Z,1003.8
2016-02-01T10:46:00.273Z,1003.6
2016-02-01T10:47:00.104Z,1003.6
2016-02-01T10:48:00.170Z,1003.5
2016-02-01T10:49:00.125Z,1003.6
2016-02-01T10:50:00.065Z,1003.5
2016-02-01T10:51:00.002Z,1003.6
2016-02-01T10:52:00.146Z,1003.5
2016-02-01T10:53:00.163Z,1003.5
2016-02-01T10:53:59.838Z,1003.3
2016-02-01T10:55:00.029Z,1003.3
2016-02-01T10:55:59.738Z,1003.3
2016-02-01T10:56:59.693Z,1003.2
2016-02-01T10:57:59.649Z,1003.2
2016-02-01T10:58:59.589Z,1003.2
2016-02-01T10:59:59.530Z,1003.2
2016-02-01T11:00:59.502Z,1003.2
2016-02-01T11:01:59.458Z,1003.1
2016-02-01T11:02:59.398Z,1003.1
2016-02-01T11:03:59.338Z,1003.1
2016-02-01T11:04:59.278Z,1003.2
2016-02-01T11:05:59.250Z,1003.1
2016-02-01T11:06:59.237Z,1003
2016-02-01T11:07:59.130Z,1003
2016-02-01T11:08:59.132Z,1003
2016-02-01T11:09:59.229Z,1003.1
2016-02-01T11:10:58.997Z,1002.9
2016-02-01T11:11:58.924Z,1003
2016-02-01T11:12:58.115Z,1002.9
2016-02-01T11:13:58.835Z,1003
2016-02-01T11:14:58.760Z,1003
2016-02-01T11:15:58.702Z,1002.9
2016-02-01T11:16:58.675Z,1003
2016-02-01T11:17:58.835Z,1003
2016-02-01T11:18:58.603Z,1003.1
2016-02-01T11:19:58.559Z,1003
2016-02-01T11:20:58.440Z,1003
2016-02-01T11:21:58.396Z,1003.1
2016-02-01T11:22:58.338Z,1003.1
2016-02-01T11:23:58.310Z,1003
2016-02-01T11:24:58.232Z,1003.1
2016-02-01T11:25:58.188Z,1002.9
2016-02-01T11:26:58.144Z,1003
2016-02-01T11:27:58.083Z,1002.9
2016-02-01T11:28:58.055Z,1002.8
2016-02-01T11:29:57.963Z,1002.8
2016-02-01T11:30:57.935Z,1002.8
2016-02-01T11:31:57.876Z,1002.9
2016-02-01T11:32:57.819Z,1002.9
2016-02-01T11:33:57.759Z,1002.8
2016-02-01T11:34:57.715Z,1002.8
2016-02-01T11:35:57.671Z,1002.9
2016-02-01T11:36:57.627Z,1002.8
2016-02-01T11:37:57.552Z,1002.8
2016-02-01T11:38:57.507Z,1002.8
2016-02-01T11:39:57.448Z,1002.8
2016-02-01T11:40:57.404Z,1002.8
2016-02-01T11:41:57.411Z,1002.7
2016-02-01T11:42:57.288Z,1002.7
2016-02-01T11:43:57.245Z,1002.6
2016-02-01T11:44:57.201Z,1002.6
2016-02-01T11:45:57.376Z,1002.7
2016-02-01T11:46:57.332Z,1002.6
2016-02-01T11:47:57.037Z,1002.5
2016-02-01T11:48:56.978Z,1002.5
2016-02-01T11:49:56.933Z,1002.5
2016-02-01T11:50:56.889Z,1002.5
2016-02-01T11:51:56.845Z,1002.6
2016-02-01T11:52:56.783Z,1002.5
2016-02-01T11:53:56.724Z,1002.5
2016-02-01T11:54:56.695Z,1002.6
2016-02-01T11:55:56.619Z,1002.6
2016-02-01T11:56:56.575Z,1002.4
2016-02-01T11:57:56.519Z,1002.4
2016-02-01T11:58:56.474Z,1002.3
2016-02-01T11:59:56.414Z,1002.3
2016-02-01T12:00:56.574Z,1002.4
2016-02-01T12:01:56.312Z,1002.5
2016-02-01T12:02:56.267Z,1002.3
2016-02-01T12:03:56.223Z,1002.3
2016-02-01T12:04:56.148Z,1002.4
2016-02-01T12:05:56.135Z,1002.4
2016-02-01T12:06:56.047Z,1002.5
2016-02-01T12:07:56.002Z,1002.4
2016-02-01T12:08:55.942Z,1002.5
2016-02-01T12:09:56.086Z,1002.4
2016-02-01T12:10:55.839Z,1002.4
2016-02-01T12:11:55.794Z,1002.3
2016-02-01T12:12:55.735Z,1002.4
2016-02-01T12:13:55.723Z,1002.6
2016-02-01T12:14:55.632Z,1002.4
2016-02-01T12:15:55.587Z,1002.6
2016-02-01T12:16:55.559Z,1002.5
2016-02-01T12:17:55.487Z,1002.6
2016-02-01T12:18:55.505Z,1002.9
2016-02-01T12:19:55.414Z,1002.9
2016-02-01T12:20:55.931Z,1002.8
2016-02-01T12:21:55.278Z,1003
2016-02-01T12:22:55.223Z,1003
2016-02-01T12:23:55.193Z,1003
2016-02-01T12:24:55.349Z,1003
2016-02-01T12:25:55.102Z,1002.9
2016-02-01T12:26:55.011Z,1003
2016-02-01T12:27:54.966Z,1002.8
2016-02-01T12:28:54.922Z,1002.8
2016-02-01T12:29:54.878Z,1002.7
2016-02-01T12:30:54.819Z,1002.7
2016-02-01T12:31:54.758Z,1002.8
2016-02-01T12:32:54.729Z,1002.7
2016-02-01T12:33:54.671Z,1002.7
2016-02-01T12:34:54.798Z,1002.9
2016-02-01T12:35:54.551Z,1002.6